createdAt,value
2019-05-09T00:02:24.354Z,10.48
2019-05-09T00:04:54.271Z,10.44
2019-05-09T00:07:25.196Z,10.48
2019-05-09T00:09:55.252Z,10.44
2019-05-09T00:12:25.228Z,10.40
2019-05-09T00:14:55.730Z,10.31
2019-05-09T00:17:26.031Z,10.29
2019-05-09T00:19:57.833Z,10.29
2019-05-09T00:22:28.274Z,9.65
2019-05-09T00:25:03.249Z,10.24
2019-05-09T00:27:33.755Z,10.23
2019-05-09T00:30:04.045Z,10.23
2019-05-09T00:32:39.530Z,10.31
2019-05-09T00:35:33.806Z,10.34
2019-05-09T00:38:05.279Z,10.26
2019-05-09T00:40:35.518Z,10.09
2019-05-09T00:43:05.422Z,9.99
2019-05-09T00:46:13.752Z,10.01
2019-05-09T00:48:53.357Z,9.96
2019-05-09T00:51:24.762Z,9.85
2019-05-09T00:53:55.043Z,9.87
2019-05-09T00:56:25.065Z,9.85
2019-05-09T00:58:55.469Z,9.70
2019-05-09T01:01:26.754Z,9.70
2019-05-09T01:03:59.162Z,9.54
2019-05-09T01:06:28.991Z,9.33
2019-05-09T01:08:59.715Z,9.50
2019-05-09T01:11:30.420Z,9.40
2019-05-09T01:14:03.655Z,9.32
2019-05-09T01:16:34.405Z,9.28
2019-05-09T01:19:06.458Z,9.31
2019-05-09T01:21:36.604Z,9.27
2019-05-09T01:24:07.111Z,9.29
2019-05-09T01:26:37.701Z,9.27
2019-05-09T01:29:08.163Z,9.24
2019-05-09T01:31:38.438Z,9.23
2019-05-09T01:34:14.473Z,9.18
2019-05-09T01:37:06.500Z,9.05
2019-05-09T01:39:37.191Z,9.01
2019-05-09T01:42:07.867Z,8.99
2019-05-09T01:44:37.614Z,8.94
2019-05-09T01:47:07.495Z,8.88
2019-05-09T01:49:38.639Z,8.91
2019-05-09T01:52:08.654Z,8.76
2019-05-09T01:54:40.694Z,8.65
2019-05-09T01:57:13.686Z,8.71
2019-05-09T01:59:44.393Z,8.70
2019-05-09T02:02:14.765Z,8.62
2019-05-09T02:04:45.051Z,8.72
2019-05-09T02:07:14.943Z,8.72
2019-05-09T02:09:45.691Z,8.72
2019-05-09T02:12:16.113Z,8.71
2019-05-09T02:15:03.903Z,8.71
2019-05-09T02:17:57.782Z,8.68
2019-05-09T02:20:17.634Z,8.68
2019-05-09T02:22:47.709Z,8.62
2019-05-09T02:25:18.074Z,8.65
2019-05-09T02:27:48.533Z,8.71
2019-05-09T02:30:18.617Z,8.68
2019-05-09T02:32:54.730Z,8.67
2019-05-09T02:35:24.619Z,8.73
2019-05-09T02:37:54.669Z,8.68
2019-05-09T02:40:24.337Z,8.74
2019-05-09T02:42:54.658Z,8.74
2019-05-09T02:45:28.442Z,8.67
2019-05-09T02:47:59.073Z,8.67
2019-05-09T02:50:29.265Z,8.38
2019-05-09T02:52:59.245Z,8.38
2019-05-09T02:55:29.045Z,8.46
2019-05-09T02:58:00.436Z,8.46
2019-05-09T03:01:00.757Z,8.48
2019-05-09T03:03:33.696Z,8.44
2019-05-09T03:06:03.643Z,8.46
2019-05-09T03:08:33.407Z,8.43
2019-05-09T03:11:03.535Z,8.44
2019-05-09T03:13:33.509Z,8.44
2019-05-09T03:16:10.153Z,8.45
2019-05-09T03:18:40.153Z,8.41
2019-05-09T03:21:22.949Z,8.47
2019-05-09T03:23:55.327Z,8.47
2019-05-09T03:26:29.596Z,8.48
2019-05-09T03:29:09.611Z,8.58
2019-05-09T03:31:40.035Z,8.64
2019-05-09T03:34:10.070Z,8.51
2019-05-09T03:36:39.856Z,8.60
2019-05-09T03:39:10.445Z,8.60
2019-05-09T03:41:42.587Z,8.55
2019-05-09T03:44:15.005Z,8.51
2019-05-09T03:47:05.308Z,8.54
2019-05-09T03:49:37.680Z,8.54
2019-05-09T03:52:07.702Z,8.54
2019-05-09T03:54:37.695Z,8.61
2019-05-09T03:57:19.214Z,8.64
2019-05-09T03:59:49.172Z,8.60
2019-05-09T04:02:18.962Z,8.60
2019-05-09T04:04:48.853Z,8.67
2019-05-09T04:07:18.894Z,8.73
2019-05-09T04:09:48.671Z,8.68
2019-05-09T04:12:19.038Z,8.74
2019-05-09T04:14:49.158Z,8.74
2019-05-09T04:17:19.371Z,8.78
2019-05-09T04:19:50.367Z,8.82
2019-05-09T04:22:20.243Z,8.84
2019-05-09T04:24:50.396Z,8.85
2019-05-09T04:27:25.108Z,8.83
2019-05-09T04:29:57.367Z,8.86
2019-05-09T04:32:27.395Z,8.86
2019-05-09T04:34:57.856Z,8.87
2019-05-09T04:37:31.077Z,8.95
2019-05-09T04:40:03.515Z,8.94
2019-05-09T04:42:35.078Z,8.92
2019-05-09T04:45:17.727Z,8.89
2019-05-09T04:47:47.455Z,8.99
2019-05-09T04:50:23.638Z,9.04
2019-05-09T04:52:50.180Z,9.02
2019-05-09T04:55:23.266Z,8.99
2019-05-09T04:57:52.975Z,8.99
2019-05-09T05:00:30.433Z,9.03
2019-05-09T05:02:59.982Z,9.03
2019-05-09T05:05:29.785Z,9.01
2019-05-09T05:08:00.417Z,9.03
2019-05-09T05:10:30.755Z,9.06
2019-05-09T05:13:01.658Z,9.12
2019-05-09T05:15:33.747Z,9.07
2019-05-09T05:18:03.687Z,9.00
2019-05-09T05:20:33.596Z,9.05
2019-05-09T05:23:24.717Z,9.07
2019-05-09T05:25:54.487Z,9.07
2019-05-09T05:28:24.692Z,9.05
2019-05-09T05:30:54.700Z,9.05
2019-05-09T05:33:53.608Z,9.08
2019-05-09T05:36:21.212Z,9.08
2019-05-09T05:38:50.956Z,9.08
2019-05-09T05:41:20.686Z,9.08
2019-05-09T05:43:51.083Z,9.10
2019-05-09T05:46:52.186Z,9.10
2019-05-09T05:49:22.036Z,9.05
2019-05-09T05:51:51.787Z,8.99
2019-05-09T05:54:23.434Z,8.99
2019-05-09T05:56:53.070Z,9.04
2019-05-09T05:59:22.787Z,9.13
2019-05-09T06:01:52.585Z,9.17
2019-05-09T06:04:22.343Z,9.13
2019-05-09T06:06:52.014Z,9.09
2019-05-09T06:09:22.158Z,9.13
2019-05-09T06:11:52.253Z,9.10
2019-05-09T06:14:22.215Z,9.08
2019-05-09T06:17:10.128Z,9.12
2019-05-09T06:19:48.184Z,9.22
2019-05-09T06:22:18.544Z,9.24
2019-05-09T06:24:48.304Z,9.28
2019-05-09T06:27:18.429Z,9.29
2019-05-09T06:29:48.279Z,9.22
2019-05-09T06:32:18.803Z,9.24
2019-05-09T06:34:48.622Z,9.15
2019-05-09T06:37:18.604Z,9.21
2019-05-09T06:39:48.798Z,9.17
2019-05-09T06:42:18.740Z,9.16
2019-05-09T06:45:15.345Z,9.21
2019-05-09T06:47:48.659Z,9.26
2019-05-09T06:50:22.343Z,9.23
2019-05-09T06:52:52.758Z,9.22
2019-05-09T06:55:23.404Z,9.16
2019-05-09T06:57:53.123Z,9.16
2019-05-09T07:00:48.923Z,9.22
2019-05-09T07:03:21.145Z,9.27
2019-05-09T07:06:08.294Z,9.27
2019-05-09T07:08:53.632Z,9.21
2019-05-09T07:11:23.344Z,9.16
2019-05-09T07:13:53.979Z,9.09
2019-05-09T07:16:23.605Z,9.24
2019-05-09T07:18:53.610Z,9.24
2019-05-09T07:21:28.489Z,9.25
2019-05-09T07:23:58.710Z,9.25
2019-05-09T07:26:31.845Z,9.21
2019-05-09T07:29:01.698Z,9.18
2019-05-09T07:31:53.874Z,9.28
2019-05-09T07:34:27.741Z,9.30
2019-05-09T07:36:58.274Z,9.32
2019-05-09T07:39:28.421Z,9.33
2019-05-09T07:41:58.523Z,9.41
2019-05-09T07:44:37.904Z,9.41
2019-05-09T07:47:01.789Z,9.41
2019-05-09T07:49:32.716Z,9.45
2019-05-09T07:52:06.880Z,9.52
2019-05-09T07:54:34.245Z,9.51
2019-05-09T07:57:08.508Z,9.55
2019-05-09T07:59:38.959Z,9.64
2019-05-09T08:02:09.117Z,9.64
2019-05-09T08:04:40.054Z,9.73
2019-05-09T08:07:09.637Z,9.74
2019-05-09T08:09:39.556Z,9.84
2019-05-09T08:12:09.115Z,9.79
2019-05-09T08:14:39.709Z,9.79
2019-05-09T08:17:09.895Z,9.85
2019-05-09T08:19:39.960Z,9.82
2019-05-09T08:22:09.577Z,9.85
2019-05-09T08:24:39.499Z,9.98
2019-05-09T08:27:09.218Z,10.09
2019-05-09T08:29:40.144Z,10.04
2019-05-09T08:32:12.572Z,10.04
2019-05-09T08:34:48.095Z,9.98
2019-05-09T08:37:25.168Z,9.93
2019-05-09T08:39:57.570Z,10.02
2019-05-09T08:42:37.894Z,10.14
2019-05-09T08:45:23.358Z,10.15
2019-05-09T08:47:48.478Z,10.20
2019-05-09T08:50:39.670Z,10.19
2019-05-09T08:53:10.217Z,10.35
2019-05-09T08:55:40.075Z,10.39
2019-05-09T08:58:09.937Z,10.42
2019-05-09T09:00:48.372Z,10.49
2019-05-09T09:03:23.763Z,10.50
2019-05-09T09:05:54.534Z,10.52
2019-05-09T09:08:30.959Z,10.45
2019-05-09T09:11:02.018Z,10.50
2019-05-09T09:13:33.607Z,10.45
2019-05-09T09:16:15.729Z,10.46
2019-05-09T09:18:38.788Z,10.48
2019-05-09T09:21:11.267Z,10.52
2019-05-09T09:23:46.789Z,10.67
2019-05-09T09:26:14.257Z,10.82
2019-05-09T09:28:44.011Z,10.82
2019-05-09T09:31:13.647Z,10.87
2019-05-09T09:33:43.517Z,10.95
2019-05-09T09:36:13.225Z,10.88
2019-05-09T09:38:43.448Z,10.86
2019-05-09T09:41:13.178Z,10.89
2019-05-09T09:43:42.913Z,10.94
2019-05-09T09:46:18.586Z,11.02
2019-05-09T09:48:48.405Z,10.98
2019-05-09T09:51:18.852Z,10.94
2019-05-09T09:53:49.229Z,10.92
2019-05-09T09:56:22.308Z,10.88
2019-05-09T09:59:03.214Z,10.94
2019-05-09T10:01:35.335Z,10.91
2019-05-09T10:04:19.425Z,10.96
2019-05-09T10:06:40.342Z,10.84
2019-05-09T10:09:11.090Z,10.78
2019-05-09T10:11:40.701Z,10.72
2019-05-09T10:14:13.695Z,10.68
2019-05-09T10:17:00.736Z,10.65
2019-05-09T10:19:52.692Z,10.63
2019-05-09T10:22:25.729Z,10.61
2019-05-09T10:24:55.209Z,10.60
2019-05-09T10:27:24.828Z,10.60
2019-05-09T10:29:57.433Z,10.63
2019-05-09T10:32:28.850Z,10.59
2019-05-09T10:34:59.083Z,10.58
2019-05-09T10:37:31.387Z,10.62
2019-05-09T10:40:01.089Z,10.58
2019-05-09T10:42:44.209Z,10.61
2019-05-09T10:45:31.186Z,10.64
2019-05-09T10:48:00.887Z,10.60
2019-05-09T10:50:33.943Z,10.67
2019-05-09T10:53:02.663Z,10.60
2019-05-09T10:55:34.864Z,10.64
2019-05-09T10:58:07.889Z,10.64
2019-05-09T11:00:39.356Z,10.61
2019-05-09T11:03:08.896Z,10.66
2019-05-09T11:05:38.712Z,10.67
2019-05-09T11:08:08.652Z,10.68
2019-05-09T11:10:39.845Z,10.72
2019-05-09T11:13:10.140Z,10.80
2019-05-09T11:15:40.355Z,10.83
2019-05-09T11:18:10.051Z,10.83
2019-05-09T11:20:39.647Z,10.84
2019-05-09T11:23:09.730Z,10.82
2019-05-09T11:25:39.676Z,10.88
2019-05-09T11:28:12.671Z,10.84
2019-05-09T11:30:41.538Z,10.78
2019-05-09T11:33:11.106Z,10.71
2019-05-09T11:35:40.828Z,10.78
2019-05-09T11:38:10.994Z,10.84
2019-05-09T11:40:40.665Z,10.89
2019-05-09T11:43:10.361Z,10.91
2019-05-09T11:45:40.435Z,10.96
2019-05-09T11:48:10.065Z,10.96
2019-05-09T11:50:39.654Z,10.86
2019-05-09T11:53:09.677Z,10.90
2019-05-09T11:55:43.066Z,10.88
2019-05-09T11:58:10.995Z,10.89
2019-05-09T12:00:40.600Z,10.94
2019-05-09T12:03:10.297Z,10.86
2019-05-09T12:05:40.336Z,10.86
2019-05-09T12:08:10.336Z,10.84
2019-05-09T12:10:39.892Z,10.82
2019-05-09T12:13:09.492Z,10.80
2019-05-09T12:15:39.834Z,10.86
2019-05-09T12:18:11.583Z,10.86
2019-05-09T12:20:40.919Z,10.89
2019-05-09T12:23:10.585Z,10.86
2019-05-09T12:25:40.385Z,10.81
2019-05-09T12:28:10.363Z,10.83
2019-05-09T12:30:39.879Z,10.84
2019-05-09T12:33:09.421Z,10.85
2019-05-09T12:35:39.272Z,10.91
2019-05-09T12:38:08.937Z,10.92
2019-05-09T12:40:38.969Z,10.85
2019-05-09T12:43:09.242Z,10.87
2019-05-09T12:45:39.119Z,10.84
2019-05-09T12:48:14.854Z,10.94
2019-05-09T12:50:40.629Z,10.96
2019-05-09T12:53:10.376Z,10.90
2019-05-09T12:55:40.427Z,10.90
2019-05-09T12:58:28.043Z,10.93
2019-05-09T13:01:00.885Z,10.92
2019-05-09T13:03:31.520Z,10.86
2019-05-09T13:06:01.438Z,10.81
2019-05-09T13:08:31.394Z,10.81
2019-05-09T13:11:02.522Z,10.85
2019-05-09T13:13:33.198Z,10.88
2019-05-09T13:16:22.189Z,10.92
2019-05-09T13:19:06.510Z,10.88
2019-05-09T13:21:38.970Z,10.91
2019-05-09T13:24:08.597Z,10.91
2019-05-09T13:26:38.954Z,10.91
2019-05-09T13:29:08.836Z,10.86
2019-05-09T13:31:39.684Z,10.91
2019-05-09T13:34:09.677Z,11.01
2019-05-09T13:36:39.375Z,11.01
2019-05-09T13:39:11.356Z,10.97
2019-05-09T13:41:42.400Z,10.95
2019-05-09T13:44:13.878Z,10.90
2019-05-09T13:46:43.751Z,10.89
2019-05-09T13:49:15.628Z,10.98
2019-05-09T13:51:51.937Z,11.04
2019-05-09T13:54:18.503Z,10.98
2019-05-09T13:56:54.949Z,10.90
2019-05-09T13:59:19.990Z,11.03
2019-05-09T14:01:49.618Z,11.13
2019-05-09T14:04:19.437Z,11.24
2019-05-09T14:06:49.330Z,11.31
2019-05-09T14:09:20.110Z,11.33
2019-05-09T14:11:51.140Z,11.36
2019-05-09T14:14:20.942Z,11.39
2019-05-09T14:16:50.664Z,11.39
2019-05-09T14:19:31.671Z,11.40
2019-05-09T14:21:51.979Z,11.51
2019-05-09T14:24:22.009Z,11.41
2019-05-09T14:26:51.624Z,11.46
2019-05-09T14:29:21.310Z,11.55
2019-05-09T14:31:51.348Z,11.51
2019-05-09T14:34:21.046Z,11.54
2019-05-09T14:36:50.737Z,11.52
2019-05-09T14:39:20.819Z,11.57
2019-05-09T14:41:50.748Z,11.55
2019-05-09T14:44:20.306Z,11.44
2019-05-09T14:46:50.134Z,11.54
2019-05-09T14:49:58.950Z,11.54
2019-05-09T14:53:00.538Z,11.47
2019-05-09T14:55:30.424Z,11.54
2019-05-09T14:57:59.967Z,11.58
2019-05-09T15:00:29.885Z,11.66
2019-05-09T15:02:59.501Z,11.71
2019-05-09T15:05:29.305Z,11.70
2019-05-09T15:07:59.504Z,11.60
2019-05-09T15:10:29.280Z,11.69
2019-05-09T15:12:59.158Z,11.72
2019-05-09T15:15:32.509Z,11.71
2019-05-09T15:18:00.416Z,11.79
2019-05-09T15:20:30.564Z,11.77
2019-05-09T15:23:00.239Z,11.79
2019-05-09T15:25:29.921Z,11.74
2019-05-09T15:28:00.168Z,11.87
2019-05-09T15:30:29.849Z,11.83
2019-05-09T15:32:59.507Z,11.71
2019-05-09T15:35:29.484Z,11.71
2019-05-09T15:37:59.373Z,11.73
2019-05-09T15:40:29.334Z,11.74
2019-05-09T15:42:59.716Z,11.83
2019-05-09T15:45:31.503Z,11.85
2019-05-09T15:48:03.936Z,11.72
2019-05-09T15:50:33.707Z,11.74
2019-05-09T15:53:03.369Z,11.77
2019-05-09T15:55:33.786Z,11.75
2019-05-09T15:58:03.711Z,11.76
2019-05-09T16:00:33.634Z,11.77
2019-05-09T16:03:03.516Z,11.85
2019-05-09T16:05:33.686Z,11.84
2019-05-09T16:08:03.410Z,11.83
2019-05-09T16:10:33.273Z,11.86
2019-05-09T16:13:03.134Z,11.87
2019-05-09T16:15:32.751Z,11.87
2019-05-09T16:18:02.524Z,11.88
2019-05-09T16:20:37.283Z,11.88
2019-05-09T16:23:04.033Z,11.89
2019-05-09T16:25:33.576Z,11.95
2019-05-09T16:28:03.632Z,12.00
2019-05-09T16:30:33.737Z,12.04
2019-05-09T16:33:03.333Z,12.14
2019-05-09T16:35:32.916Z,12.24
2019-05-09T16:38:07.889Z,12.28
2019-05-09T16:40:34.710Z,12.32
2019-05-09T16:43:04.605Z,12.35
2019-05-09T16:45:34.238Z,12.29
2019-05-09T16:48:04.278Z,12.19
2019-05-09T16:50:34.429Z,12.24
2019-05-09T16:53:04.034Z,12.28
2019-05-09T16:55:38.088Z,12.25
2019-05-09T16:58:08.724Z,12.29
2019-05-09T17:00:49.743Z,12.36
2019-05-09T17:03:19.392Z,12.33
2019-05-09T17:05:48.990Z,12.40
2019-05-09T17:08:19.151Z,12.45
2019-05-09T17:10:49.032Z,12.48
2019-05-09T17:13:18.769Z,12.51
2019-05-09T17:15:48.832Z,12.50
2019-05-09T17:18:19.184Z,12.56
2019-05-09T17:21:18.276Z,12.59
2019-05-09T17:23:39.770Z,12.61
2019-05-09T17:26:09.842Z,12.52
2019-05-09T17:28:40.184Z,12.52
2019-05-09T17:31:10.387Z,12.55
2019-05-09T17:33:40.319Z,12.54
2019-05-09T17:36:09.999Z,12.49
2019-05-09T17:38:39.520Z,12.49
2019-05-09T17:41:09.080Z,12.54
2019-05-09T17:43:38.823Z,12.52
2019-05-09T17:46:08.693Z,12.51
2019-05-09T17:48:38.733Z,12.41
2019-05-09T17:51:09.887Z,12.37
2019-05-09T17:53:40.019Z,12.35
2019-05-09T17:56:10.846Z,12.34
2019-05-09T17:58:40.769Z,12.30
2019-05-09T18:01:10.820Z,12.28
2019-05-09T18:03:41.002Z,12.30
2019-05-09T18:06:10.659Z,12.24
2019-05-09T18:08:41.229Z,12.28
2019-05-09T18:11:13.051Z,12.26
2019-05-09T18:13:43.559Z,12.23
2019-05-09T18:16:14.555Z,12.25
2019-05-09T18:18:44.878Z,12.14
2019-05-09T18:21:14.824Z,12.16
2019-05-09T18:23:45.107Z,12.14
2019-05-09T18:26:15.060Z,12.02
2019-05-09T18:28:44.966Z,11.92
2019-05-09T18:31:14.846Z,11.91
2019-05-09T18:33:48.685Z,11.84
2019-05-09T18:36:19.006Z,11.81
2019-05-09T18:38:49.000Z,11.78
2019-05-09T18:41:18.897Z,11.76
2019-05-09T18:43:48.902Z,11.71
2019-05-09T18:46:21.594Z,11.56
2019-05-09T18:48:50.909Z,11.54
2019-05-09T18:51:20.854Z,11.54
2019-05-09T18:53:50.795Z,11.55
2019-05-09T18:56:21.074Z,11.56
2019-05-09T18:58:51.902Z,11.52
2019-05-09T19:01:22.068Z,11.42
2019-05-09T19:03:52.392Z,11.43
2019-05-09T19:06:22.211Z,11.40
2019-05-09T19:08:52.875Z,11.33
2019-05-09T19:11:25.814Z,11.34
2019-05-09T19:13:57.863Z,11.31
2019-05-09T19:16:57.080Z,11.29
2019-05-09T19:19:42.840Z,11.29
2019-05-09T19:22:22.009Z,11.23
2019-05-09T19:24:45.074Z,11.20
2019-05-09T19:27:15.209Z,11.17
2019-05-09T19:29:45.045Z,11.13
2019-05-09T19:32:15.708Z,11.09
2019-05-09T19:34:45.595Z,11.03
2019-05-09T19:37:15.340Z,11.02
2019-05-09T19:39:46.351Z,11.00
2019-05-09T19:42:16.580Z,11.01
2019-05-09T19:44:47.173Z,11.00
2019-05-09T19:47:17.605Z,10.94
2019-05-09T19:49:47.336Z,10.82
2019-05-09T19:52:17.755Z,10.79
2019-05-09T19:54:48.129Z,10.81
2019-05-09T19:57:18.899Z,10.79
2019-05-09T19:59:49.801Z,10.74
2019-05-09T20:02:20.074Z,10.76
2019-05-09T20:04:50.399Z,10.64
2019-05-09T20:07:20.081Z,10.60
2019-05-09T20:09:54.857Z,10.59
2019-05-09T20:12:35.078Z,10.59
2019-05-09T20:15:06.033Z,10.63
2019-05-09T20:17:38.583Z,10.62
2019-05-09T20:20:11.689Z,10.65
2019-05-09T20:22:52.560Z,10.65
2019-05-09T20:25:15.666Z,10.65
2019-05-09T20:27:49.522Z,10.59
2019-05-09T20:30:20.297Z,10.58
2019-05-09T20:32:50.329Z,10.53
2019-05-09T20:35:20.021Z,10.47
2019-05-09T20:37:51.707Z,10.48
2019-05-09T20:40:21.959Z,10.48
2019-05-09T20:42:56.665Z,10.48
2019-05-09T20:45:26.974Z,10.47
2019-05-09T20:48:00.223Z,10.54
2019-05-09T20:50:30.315Z,10.57
2019-05-09T20:53:09.583Z,10.56
2019-05-09T20:55:35.784Z,10.51
2019-05-09T20:58:09.359Z,10.51
2019-05-09T21:00:39.997Z,10.53
2019-05-09T21:03:10.995Z,10.53
2019-05-09T21:05:41.218Z,10.56
2019-05-09T21:08:11.373Z,10.57
2019-05-09T21:10:42.933Z,10.49
2019-05-09T21:13:15.723Z,10.46
2019-05-09T21:15:46.119Z,10.44
2019-05-09T21:18:17.536Z,10.44
2019-05-09T21:20:48.604Z,10.46
2019-05-09T21:23:24.629Z,10.48
2019-05-09T21:25:51.077Z,10.43
2019-05-09T21:28:21.205Z,10.42
2019-05-09T21:30:51.500Z,10.39
2019-05-09T21:33:21.606Z,10.33
2019-05-09T21:35:51.650Z,10.32
2019-05-09T21:38:21.638Z,10.32
2019-05-09T21:40:51.789Z,10.35
2019-05-09T21:43:22.040Z,10.38
2019-05-09T21:45:52.007Z,10.42
2019-05-09T21:48:22.230Z,10.42
2019-05-09T21:50:52.543Z,10.40
2019-05-09T21:53:23.067Z,10.43
2019-05-09T21:55:53.487Z,10.44
2019-05-09T21:58:23.418Z,10.46
2019-05-09T22:00:56.180Z,10.42
2019-05-09T22:03:26.304Z,10.36
2019-05-09T22:05:56.159Z,10.39
2019-05-09T22:08:26.472Z,10.43
2019-05-09T22:10:56.307Z,10.44
2019-05-09T22:13:26.318Z,10.36
2019-05-09T22:15:56.749Z,10.35
2019-05-09T22:18:26.741Z,10.27
2019-05-09T22:20:56.617Z,10.23
2019-05-09T22:23:26.705Z,10.24
2019-05-09T22:25:56.898Z,10.27
2019-05-09T22:28:26.670Z,10.27
2019-05-09T22:30:56.710Z,10.29
2019-05-09T22:33:26.577Z,10.24
2019-05-09T22:35:56.378Z,10.22
2019-05-09T22:38:26.352Z,10.27
2019-05-09T22:40:56.545Z,10.29
2019-05-09T22:43:28.842Z,10.33
2019-05-09T22:45:58.645Z,10.30
2019-05-09T22:48:28.876Z,10.30
2019-05-09T22:51:00.554Z,10.32
2019-05-09T22:53:30.397Z,10.28
2019-05-09T22:56:00.395Z,10.26
2019-05-09T22:58:30.430Z,10.33
2019-05-09T23:01:00.066Z,10.26
2019-05-09T23:03:31.460Z,10.21
2019-05-09T23:06:04.083Z,10.20
2019-05-09T23:08:33.898Z,10.18
2019-05-09T23:11:04.310Z,10.21
2019-05-09T23:13:52.621Z,10.19
2019-05-09T23:16:24.696Z,10.19
2019-05-09T23:18:55.357Z,10.24
2019-05-09T23:21:27.382Z,10.28
2019-05-09T23:24:02.665Z,10.36
2019-05-09T23:34:17.384Z,10.32
2019-05-09T23:42:13.121Z,10.31
2019-05-09T23:59:38.751Z,10.13
